createdAt,value
2019-06-20T00:02:09.527Z,8.13
2019-06-20T00:04:38.397Z,6.83
2019-06-20T00:07:07.284Z,7.77
2019-06-20T00:09:36.167Z,7.97
2019-06-20T00:12:05.583Z,9.23
2019-06-20T00:14:34.490Z,7.53
2019-06-20T00:17:03.330Z,8.43
2019-06-20T00:19:32.272Z,7.53
2019-06-20T00:22:01.083Z,10.43
2019-06-20T00:24:29.915Z,8.80
2019-06-20T00:26:58.882Z,9.10
2019-06-20T00:29:27.777Z,11.87
2019-06-20T00:31:56.683Z,9.17
2019-06-20T00:34:25.669Z,9.73
2019-06-20T00:36:54.504Z,9.47
2019-06-20T00:39:23.398Z,12.07
2019-06-20T00:41:52.246Z,9.57
2019-06-20T00:44:21.183Z,11.27
2019-06-20T00:46:50.065Z,9.80
2019-06-20T00:49:19.006Z,8.70
2019-06-20T00:51:47.961Z,10.13
2019-06-20T00:54:16.787Z,11.00
2019-06-20T00:56:45.658Z,12.17
2019-06-20T00:59:14.512Z,11.57
2019-06-20T01:01:43.422Z,11.40
2019-06-20T01:04:12.382Z,11.40
2019-06-20T01:06:41.336Z,10.87
2019-06-20T01:09:10.498Z,11.97
2019-06-20T01:11:39.456Z,11.13
2019-06-20T01:14:13.933Z,10.13
2019-06-20T01:16:42.792Z,9.40
2019-06-20T01:19:11.706Z,11.40
2019-06-20T01:21:40.768Z,10.47
2019-06-20T01:24:09.638Z,9.37
2019-06-20T01:26:38.537Z,9.63
2019-06-20T01:29:07.471Z,9.67
2019-06-20T01:31:36.327Z,9.60
2019-06-20T01:34:05.334Z,9.57
2019-06-20T01:36:34.187Z,9.97
2019-06-20T01:39:03.088Z,10.47
2019-06-20T01:41:31.987Z,9.57
2019-06-20T01:44:00.892Z,12.37
2019-06-20T01:46:29.815Z,10.93
2019-06-20T01:48:58.715Z,11.27
2019-06-20T01:51:27.597Z,10.27
2019-06-20T01:53:56.995Z,11.77
2019-06-20T01:56:25.829Z,10.00
2019-06-20T01:58:54.750Z,10.50
2019-06-20T02:01:23.670Z,14.03
2019-06-20T02:03:52.570Z,13.63
2019-06-20T02:06:21.478Z,10.50
2019-06-20T02:08:50.363Z,10.00
2019-06-20T02:11:19.279Z,11.47
2019-06-20T02:13:48.112Z,10.50
2019-06-20T02:16:17.062Z,13.00
2019-06-20T02:18:45.961Z,11.20
2019-06-20T02:21:14.882Z,13.03
2019-06-20T02:23:43.773Z,13.63
2019-06-20T02:26:12.604Z,11.40
2019-06-20T02:28:41.517Z,13.03
2019-06-20T02:31:10.417Z,11.53
2019-06-20T02:33:39.290Z,11.87
2019-06-20T02:36:08.188Z,11.43
2019-06-20T02:38:37.029Z,14.27
2019-06-20T02:41:05.981Z,14.07
2019-06-20T02:43:34.886Z,12.67
2019-06-20T02:46:07.364Z,13.30
2019-06-20T02:48:36.260Z,11.97
2019-06-20T02:51:05.339Z,12.53
2019-06-20T02:53:34.422Z,11.50
2019-06-20T02:56:03.331Z,12.13
2019-06-20T02:58:32.172Z,14.33
2019-06-20T03:01:01.025Z,12.73
2019-06-20T03:03:30.064Z,14.50
2019-06-20T03:05:59.026Z,14.10
2019-06-20T03:08:28.149Z,12.97
2019-06-20T03:10:57.030Z,11.87
2019-06-20T03:13:25.887Z,14.87
2019-06-20T03:15:54.822Z,14.80
2019-06-20T03:18:23.678Z,14.30
2019-06-20T03:20:52.575Z,12.30
2019-06-20T03:23:21.460Z,14.63
2019-06-20T03:25:50.371Z,13.87
2019-06-20T03:28:19.293Z,13.33
2019-06-20T03:30:48.154Z,14.73
2019-06-20T03:33:17.000Z,12.93
2019-06-20T03:35:45.938Z,13.27
2019-06-20T03:38:14.879Z,27.43
2019-06-20T03:40:43.857Z,35.47
2019-06-20T03:43:12.775Z,15.43
2019-06-20T03:45:41.722Z,15.20
2019-06-20T03:48:10.565Z,11.97
2019-06-20T03:50:39.477Z,20.13
2019-06-20T03:53:08.302Z,13.10
2019-06-20T03:55:37.196Z,21.90
2019-06-20T03:58:06.287Z,15.57
2019-06-20T04:00:36.935Z,13.73
2019-06-20T04:03:06.742Z,14.87
2019-06-20T04:05:35.921Z,14.03
2019-06-20T04:08:04.820Z,13.43
2019-06-20T04:10:34.214Z,13.77
2019-06-20T04:13:03.111Z,12.97
2019-06-20T04:15:31.961Z,13.30
2019-06-20T04:18:05.469Z,12.93
2019-06-20T04:20:34.431Z,14.03
2019-06-20T04:23:03.287Z,12.77
2019-06-20T04:25:32.190Z,12.80
2019-06-20T04:28:01.082Z,13.33
2019-06-20T04:30:29.982Z,12.37
2019-06-20T04:32:58.883Z,12.13
2019-06-20T04:35:27.774Z,13.13
2019-06-20T04:37:56.617Z,11.73
2019-06-20T04:40:25.513Z,12.33
2019-06-20T04:42:54.351Z,14.60
2019-06-20T04:45:34.564Z,13.33
2019-06-20T04:47:55.312Z,16.10
2019-06-20T04:50:24.214Z,13.03
2019-06-20T04:52:53.058Z,12.67
2019-06-20T04:55:21.958Z,14.17
2019-06-20T04:57:50.853Z,14.50
2019-06-20T05:00:19.904Z,13.00
2019-06-20T05:02:48.753Z,13.00
2019-06-20T05:05:17.774Z,13.50
2019-06-20T05:07:46.653Z,12.90
2019-06-20T05:10:15.541Z,12.73
2019-06-20T05:12:44.433Z,13.40
2019-06-20T05:15:13.403Z,13.73
2019-06-20T05:17:42.334Z,16.87
2019-06-20T05:20:11.508Z,14.27
2019-06-20T05:22:40.398Z,14.30
2019-06-20T05:25:09.483Z,14.37
2019-06-20T05:27:38.381Z,14.13
2019-06-20T05:30:11.340Z,14.60
2019-06-20T05:32:40.175Z,13.33
2019-06-20T05:35:09.636Z,13.87
2019-06-20T05:37:38.490Z,13.40
2019-06-20T05:40:10.674Z,15.43
2019-06-20T05:42:39.517Z,14.50
2019-06-20T05:45:09.010Z,15.40
2019-06-20T05:47:37.948Z,13.43
2019-06-20T05:50:16.783Z,14.40
2019-06-20T05:52:42.676Z,14.33
2019-06-20T05:55:11.751Z,13.57
2019-06-20T05:57:40.638Z,14.50
2019-06-20T06:00:10.355Z,12.93
2019-06-20T06:02:40.259Z,15.57
2019-06-20T06:05:09.384Z,11.97
2019-06-20T06:07:38.306Z,13.10
2019-06-20T06:10:08.785Z,13.70
2019-06-20T06:12:37.686Z,11.83
2019-06-20T06:15:07.978Z,11.97
2019-06-20T06:17:36.822Z,11.90
2019-06-20T06:20:07.898Z,11.97
2019-06-20T06:22:36.837Z,12.27
2019-06-20T06:25:08.926Z,11.30
2019-06-20T06:27:37.862Z,11.27
2019-06-20T06:30:11.374Z,10.87
2019-06-20T06:32:40.807Z,10.23
2019-06-20T06:35:11.596Z,12.13
2019-06-20T06:37:41.057Z,11.90
2019-06-20T06:40:11.666Z,13.53
2019-06-20T06:42:40.549Z,11.23
2019-06-20T06:45:10.216Z,11.07
2019-06-20T06:47:39.182Z,16.63
2019-06-20T06:50:09.394Z,12.60
2019-06-20T06:52:38.323Z,10.23
2019-06-20T06:55:07.514Z,11.07
2019-06-20T06:57:36.490Z,11.73
2019-06-20T07:00:10.894Z,9.57
2019-06-20T07:02:39.765Z,8.00
2019-06-20T07:05:09.625Z,7.30
2019-06-20T07:07:38.548Z,4.90
2019-06-20T07:10:08.380Z,5.97
2019-06-20T07:12:37.295Z,6.03
2019-06-20T07:15:08.387Z,3.97
2019-06-20T07:17:37.272Z,3.73
2019-06-20T07:20:09.315Z,3.60
2019-06-20T07:22:38.255Z,3.77
2019-06-20T07:25:08.421Z,3.53
2019-06-20T07:27:37.373Z,3.43
2019-06-20T07:30:08.807Z,7.07
2019-06-20T07:32:37.715Z,3.70
2019-06-20T07:35:07.956Z,3.50
2019-06-20T07:37:36.796Z,3.93
2019-06-20T07:40:09.659Z,4.63
2019-06-20T07:42:38.579Z,4.27
2019-06-20T07:45:09.445Z,3.60
2019-06-20T07:47:38.346Z,3.30
2019-06-20T07:50:10.899Z,3.57
2019-06-20T07:52:39.840Z,3.07
2019-06-20T07:55:09.162Z,4.00
2019-06-20T07:57:38.261Z,3.73
2019-06-20T08:00:10.086Z,3.93
2019-06-20T08:02:39.013Z,3.03
2019-06-20T08:05:08.639Z,3.50
2019-06-20T08:07:37.652Z,4.40
2019-06-20T08:10:12.141Z,3.30
2019-06-20T08:12:41.251Z,4.23
2019-06-20T08:15:15.426Z,3.30
2019-06-20T08:17:41.229Z,4.57
2019-06-20T08:20:12.216Z,4.30
2019-06-20T08:22:41.806Z,3.87
2019-06-20T08:25:10.991Z,2.90
2019-06-20T08:27:52.035Z,4.43
2019-06-20T08:30:26.982Z,3.23
2019-06-20T08:32:57.455Z,4.30
2019-06-20T08:35:29.155Z,3.40
2019-06-20T08:37:59.625Z,3.93
2019-06-20T08:40:31.362Z,3.90
2019-06-20T08:43:00.265Z,3.60
2019-06-20T08:45:32.237Z,3.53
2019-06-20T08:48:02.454Z,3.23
2019-06-20T08:50:33.120Z,4.70
2019-06-20T08:53:03.510Z,3.80
2019-06-20T08:55:32.605Z,4.10
2019-06-20T08:58:01.824Z,4.43
2019-06-20T09:00:35.075Z,4.30
2019-06-20T09:03:05.435Z,3.23
2019-06-20T09:05:34.979Z,3.47
2019-06-20T09:08:04.732Z,4.07
2019-06-20T09:10:38.637Z,5.23
2019-06-20T09:13:08.132Z,4.17
2019-06-20T09:15:37.282Z,3.70
2019-06-20T09:18:06.350Z,3.83
2019-06-20T09:20:35.669Z,5.37
2019-06-20T09:23:05.141Z,4.67
2019-06-20T09:25:34.131Z,3.73
2019-06-20T09:28:03.150Z,4.13
2019-06-20T09:30:32.207Z,3.60
2019-06-20T09:33:01.082Z,3.40
2019-06-20T09:35:30.479Z,4.87
2019-06-20T09:37:59.431Z,4.20
2019-06-20T09:40:28.637Z,4.13
2019-06-20T09:42:58.756Z,3.50
2019-06-20T09:45:27.917Z,4.78
2019-06-20T09:47:58.143Z,4.30
2019-06-20T09:50:27.367Z,4.35
2019-06-20T09:52:56.748Z,4.60
2019-06-20T09:55:25.734Z,4.13
2019-06-20T09:57:55.843Z,4.22
2019-06-20T10:00:27.420Z,5.28
2019-06-20T10:02:57.882Z,3.52
2019-06-20T10:05:27.076Z,3.52
2019-06-20T10:07:56.695Z,3.40
2019-06-20T10:10:29.998Z,3.42
2019-06-20T10:12:59.490Z,3.45
2019-06-20T10:15:32.803Z,3.55
2019-06-20T10:18:01.690Z,3.83
2019-06-20T10:20:30.598Z,3.70
2019-06-20T10:22:59.457Z,3.77
2019-06-20T10:25:28.457Z,6.25
2019-06-20T10:27:57.844Z,4.90
2019-06-20T10:30:27.945Z,4.70
2019-06-20T10:32:57.793Z,3.95
2019-06-20T10:35:26.969Z,5.55
2019-06-20T10:37:57.220Z,4.60
2019-06-20T10:40:26.588Z,4.45
2019-06-20T10:42:56.673Z,4.22
2019-06-20T10:45:27.705Z,4.28
2019-06-20T10:47:56.781Z,5.03
2019-06-20T10:50:27.435Z,5.22
2019-06-20T10:52:56.316Z,4.60
2019-06-20T10:55:25.921Z,4.50
2019-06-20T10:57:54.879Z,4.95
2019-06-20T11:00:31.257Z,4.17
2019-06-20T11:02:56.457Z,4.45
2019-06-20T11:05:25.626Z,5.03
2019-06-20T11:07:54.447Z,5.28
2019-06-20T11:10:24.830Z,6.47
2019-06-20T11:12:55.941Z,4.90
2019-06-20T11:15:24.723Z,3.90
2019-06-20T11:17:56.323Z,3.85
2019-06-20T11:20:24.448Z,3.95
2019-06-20T11:22:53.341Z,3.92
2019-06-20T11:25:22.622Z,4.72
2019-06-20T11:27:51.467Z,3.92
2019-06-20T11:30:28.846Z,4.65
2019-06-20T11:32:57.905Z,4.60
2019-06-20T11:35:26.852Z,4.30
2019-06-20T11:37:55.839Z,4.97
2019-06-20T11:40:24.996Z,5.08
2019-06-20T11:42:53.951Z,5.75
2019-06-20T11:45:23.156Z,3.95
2019-06-20T11:47:52.115Z,7.17
2019-06-20T11:50:22.582Z,5.83
2019-06-20T11:52:51.530Z,4.22
2019-06-20T11:55:20.822Z,4.67
2019-06-20T11:57:49.683Z,4.85
2019-06-20T12:00:19.852Z,5.35
2019-06-20T12:02:50.148Z,4.03
2019-06-20T12:05:19.449Z,3.75
2019-06-20T12:07:49.900Z,4.50
2019-06-20T12:10:20.720Z,4.72
2019-06-20T12:12:49.783Z,4.10
2019-06-20T12:15:19.251Z,3.72
2019-06-20T12:17:49.355Z,3.92
2019-06-20T12:20:20.536Z,3.70
2019-06-20T12:22:50.729Z,3.95
2019-06-20T12:25:20.416Z,5.47
2019-06-20T12:27:49.854Z,3.62
2019-06-20T12:30:21.131Z,4.08
2019-06-20T12:32:50.138Z,3.72
2019-06-20T12:35:19.910Z,5.10
2019-06-20T12:37:49.973Z,3.77
2019-06-20T12:40:21.076Z,3.67
2019-06-20T12:42:50.131Z,3.90
2019-06-20T12:45:19.169Z,5.10
2019-06-20T12:47:48.252Z,4.78
2019-06-20T12:50:17.555Z,4.72
2019-06-20T12:52:47.605Z,3.35
2019-06-20T12:55:16.935Z,3.30
2019-06-20T12:57:46.279Z,3.80
2019-06-20T13:00:16.465Z,3.65
2019-06-20T13:02:45.599Z,3.83
2019-06-20T13:05:17.007Z,5.03
2019-06-20T13:07:46.472Z,4.05
2019-06-20T13:10:16.475Z,3.90
2019-06-20T13:12:46.361Z,4.17
2019-06-20T13:15:16.316Z,3.62
2019-06-20T13:17:47.002Z,3.40
2019-06-20T13:20:17.581Z,5.30
2019-06-20T13:22:46.634Z,3.80
2019-06-20T13:25:15.774Z,3.40
2019-06-20T13:27:45.709Z,3.98
2019-06-20T13:30:14.898Z,3.80
2019-06-20T13:32:45.239Z,4.53
2019-06-20T13:35:16.222Z,3.62
2019-06-20T13:37:45.771Z,4.17
2019-06-20T13:40:18.029Z,3.95
2019-06-20T13:42:48.065Z,4.62
2019-06-20T13:45:25.740Z,3.55
2019-06-20T13:47:55.004Z,4.92
2019-06-20T13:50:25.309Z,4.05
2019-06-20T13:52:54.297Z,3.58
2019-06-20T13:55:23.521Z,3.20
2019-06-20T13:57:52.470Z,3.80
2019-06-20T14:00:23.993Z,3.62
2019-06-20T14:02:53.231Z,3.77
2019-06-20T14:05:22.316Z,3.42
2019-06-20T14:07:53.775Z,6.22
2019-06-20T14:10:22.380Z,3.52
2019-06-20T14:12:51.319Z,3.50
2019-06-20T14:15:20.453Z,4.62
2019-06-20T14:17:49.964Z,7.28
2019-06-20T14:20:28.577Z,7.80
2019-06-20T14:22:57.537Z,8.00
2019-06-20T14:25:26.460Z,8.25
2019-06-20T14:27:55.429Z,5.20
2019-06-20T14:30:24.766Z,10.57
2019-06-20T14:32:54.007Z,9.63
2019-06-20T14:35:23.620Z,7.50
2019-06-20T14:37:52.671Z,7.97
2019-06-20T14:40:22.558Z,8.67
2019-06-20T14:42:52.336Z,8.20
2019-06-20T14:45:21.440Z,7.80
2019-06-20T14:47:52.340Z,7.50
2019-06-20T14:50:21.682Z,8.47
2019-06-20T14:52:52.149Z,7.37
2019-06-20T14:55:21.505Z,7.60
2019-06-20T14:57:52.509Z,8.23
2019-06-20T15:00:23.162Z,8.60
2019-06-20T15:02:56.677Z,7.90
2019-06-20T15:05:23.378Z,11.77
2019-06-20T15:07:53.841Z,9.93
2019-06-20T15:10:23.312Z,8.20
2019-06-20T15:12:53.651Z,8.43
2019-06-20T15:15:23.012Z,8.43
2019-06-20T15:17:54.080Z,8.27
2019-06-20T15:20:22.570Z,8.10
2019-06-20T15:22:52.707Z,8.67
2019-06-20T15:25:22.171Z,8.77
2019-06-20T15:27:53.182Z,8.63
2019-06-20T15:30:21.878Z,8.70
2019-06-20T15:33:01.890Z,8.40
2019-06-20T15:35:21.546Z,7.20
2019-06-20T15:37:51.640Z,7.80
2019-06-20T15:40:21.531Z,8.10
2019-06-20T15:42:51.586Z,9.03
2019-06-20T15:45:21.235Z,8.10
2019-06-20T15:47:50.155Z,8.87
2019-06-20T15:50:19.214Z,7.90
2019-06-20T15:52:48.128Z,7.67
2019-06-20T15:55:21.548Z,7.13
2019-06-20T15:57:53.942Z,7.00
2019-06-20T16:00:21.407Z,7.30
2019-06-20T16:02:50.422Z,7.30
2019-06-20T16:05:19.503Z,11.57
2019-06-20T16:07:48.419Z,6.93
2019-06-20T16:10:17.965Z,8.40
2019-06-20T16:12:46.923Z,7.33
2019-06-20T16:15:18.936Z,7.50
2019-06-20T16:17:47.852Z,8.10
2019-06-20T16:20:16.917Z,8.60
2019-06-20T16:22:45.845Z,9.17
2019-06-20T16:25:15.113Z,7.40
2019-06-20T16:27:44.040Z,9.03
2019-06-20T16:30:13.050Z,8.03
2019-06-20T16:32:42.038Z,7.27
2019-06-20T16:35:11.238Z,6.13
2019-06-20T16:37:40.188Z,6.47
2019-06-20T16:40:11.374Z,8.20
2019-06-20T16:42:40.343Z,6.13
2019-06-20T16:45:10.356Z,6.33
2019-06-20T16:47:39.901Z,7.20
2019-06-20T16:50:09.474Z,6.07
2019-06-20T16:52:38.505Z,8.43
2019-06-20T16:55:08.445Z,6.07
2019-06-20T16:57:37.623Z,6.30
2019-06-20T17:00:08.588Z,5.43
2019-06-20T17:02:37.588Z,8.30
2019-06-20T17:05:08.093Z,6.40
2019-06-20T17:07:37.102Z,7.30
2019-06-20T17:10:07.695Z,5.40
2019-06-20T17:12:36.752Z,5.90
2019-06-20T17:15:06.980Z,5.83
2019-06-20T17:17:35.922Z,8.13
2019-06-20T17:20:09.560Z,7.03
2019-06-20T17:22:39.028Z,5.67
2019-06-20T17:25:08.751Z,6.17
2019-06-20T17:27:37.810Z,6.27
2019-06-20T17:30:09.593Z,5.83
2019-06-20T17:32:38.677Z,7.03
2019-06-20T17:35:09.300Z,7.23
2019-06-20T17:37:38.256Z,5.90
2019-06-20T17:40:12.315Z,7.33
2019-06-20T17:42:41.300Z,6.43
2019-06-20T17:45:11.010Z,8.10
2019-06-20T17:47:39.978Z,5.80
2019-06-20T17:50:11.105Z,6.03
2019-06-20T17:52:40.228Z,8.47
2019-06-20T17:55:09.350Z,6.33
2019-06-20T17:57:38.550Z,6.23
2019-06-20T18:00:16.870Z,6.60
2019-06-20T18:02:45.927Z,6.63
2019-06-20T18:05:15.382Z,5.73
2019-06-20T18:07:44.569Z,6.37
2019-06-20T18:10:13.811Z,7.80
2019-06-20T18:12:42.775Z,7.60
2019-06-20T18:15:12.360Z,7.00
2019-06-20T18:17:41.479Z,8.70
2019-06-20T18:20:10.780Z,7.30
2019-06-20T18:22:39.878Z,8.50
2019-06-20T18:25:10.171Z,7.00
2019-06-20T18:27:39.561Z,6.60
2019-06-20T18:30:09.591Z,6.50
2019-06-20T18:32:38.531Z,8.53
2019-06-20T18:35:08.484Z,6.27
2019-06-20T18:37:37.540Z,6.17
2019-06-20T18:40:09.056Z,6.07
2019-06-20T18:42:38.125Z,6.77
2019-06-20T18:45:09.032Z,7.97
2019-06-20T18:47:37.962Z,5.93
2019-06-20T18:50:07.629Z,6.03
2019-06-20T18:52:51.174Z,6.83
2019-06-20T18:55:12.273Z,6.37
2019-06-20T18:57:41.328Z,5.93
2019-06-20T19:00:13.401Z,7.60
2019-06-20T19:02:42.492Z,5.47
2019-06-20T19:05:11.943Z,5.60
2019-06-20T19:07:41.037Z,5.07
2019-06-20T19:10:11.245Z,5.87
2019-06-20T19:12:40.246Z,5.30
2019-06-20T19:15:10.338Z,8.47
2019-06-20T19:17:39.390Z,7.43
2019-06-20T19:20:09.212Z,6.23
2019-06-20T19:22:38.231Z,5.17
2019-06-20T19:25:10.099Z,8.03
2019-06-20T19:27:46.259Z,7.20
2019-06-20T19:30:11.821Z,6.30
2019-06-20T19:32:40.769Z,5.70
2019-06-20T19:35:10.654Z,5.23
2019-06-20T19:37:39.890Z,5.73
2019-06-20T19:40:10.209Z,5.20
2019-06-20T19:42:39.234Z,6.33
2019-06-20T19:45:10.653Z,5.37
2019-06-20T19:47:39.979Z,5.20
2019-06-20T19:50:09.481Z,5.90
2019-06-20T19:52:38.563Z,10.53
2019-06-20T19:55:07.779Z,5.43
2019-06-20T19:57:36.740Z,5.50
2019-06-20T20:00:07.622Z,3.63
2019-06-20T20:02:36.735Z,4.23
2019-06-20T20:05:18.567Z,2.87
2019-06-20T20:07:39.525Z,3.67
2019-06-20T20:10:09.761Z,4.80
2019-06-20T20:12:38.784Z,2.20
2019-06-20T20:15:11.100Z,3.07
2019-06-20T20:17:40.145Z,2.87
2019-06-20T20:20:09.371Z,2.63
2019-06-20T20:22:38.363Z,3.90
2019-06-20T20:25:08.733Z,1.73
2019-06-20T20:27:37.683Z,3.13
2019-06-20T20:30:08.935Z,2.57
2019-06-20T20:32:37.893Z,4.40
2019-06-20T20:35:07.246Z,2.80
2019-06-20T20:37:37.097Z,1.33
2019-06-20T20:40:10.884Z,1.90
2019-06-20T20:42:40.066Z,1.80
2019-06-20T20:45:09.543Z,2.90
2019-06-20T20:47:38.553Z,1.73
2019-06-20T20:50:08.524Z,3.63
2019-06-20T20:52:37.517Z,1.17
2019-06-20T20:55:08.031Z,1.20
2019-06-20T20:57:37.124Z,2.47
2019-06-20T21:00:17.826Z,1.37
2019-06-20T21:02:46.748Z,1.10
2019-06-20T21:05:15.704Z,1.10
2019-06-20T21:07:44.592Z,1.03
2019-06-20T21:10:13.504Z,2.40
2019-06-20T21:12:42.453Z,3.13
2019-06-20T21:15:11.477Z,2.47
2019-06-20T21:17:40.386Z,1.00
2019-06-20T21:20:10.601Z,1.50
2019-06-20T21:22:39.452Z,1.73
2019-06-20T21:25:09.689Z,1.17
2019-06-20T21:27:38.568Z,1.10
2019-06-20T21:30:10.673Z,1.30
2019-06-20T21:32:39.555Z,4.23
2019-06-20T21:35:08.927Z,4.47
2019-06-20T21:37:37.920Z,8.37
2019-06-20T21:40:07.425Z,2.80
2019-06-20T21:42:36.294Z,1.50
2019-06-20T21:45:07.226Z,1.93
2019-06-20T21:47:36.190Z,1.97
2019-06-20T21:50:06.879Z,2.10
2019-06-20T21:52:35.819Z,1.23
2019-06-20T21:55:06.005Z,1.87
2019-06-20T21:57:34.881Z,0.90
2019-06-20T22:00:05.282Z,1.33
2019-06-20T22:02:34.187Z,2.73
2019-06-20T22:05:03.164Z,1.20
2019-06-20T22:07:32.061Z,2.10
2019-06-20T22:10:00.956Z,2.47
2019-06-20T22:12:29.875Z,2.20
2019-06-20T22:14:58.714Z,1.73
2019-06-20T22:17:27.650Z,1.63
2019-06-20T22:19:56.520Z,1.83
2019-06-20T22:22:25.450Z,1.13
2019-06-20T22:24:54.296Z,3.67
2019-06-20T22:27:23.179Z,0.80
2019-06-20T22:29:52.017Z,1.23
2019-06-20T22:32:20.970Z,0.83
2019-06-20T22:34:49.803Z,0.80
2019-06-20T22:37:18.735Z,3.87
2019-06-20T22:39:47.715Z,2.13
2019-06-20T22:42:16.647Z,1.90
2019-06-20T22:44:45.545Z,2.97
2019-06-20T22:47:22.845Z,1.50
2019-06-20T22:49:51.710Z,4.67
2019-06-20T22:52:20.646Z,2.30
2019-06-20T22:54:49.519Z,2.07
2019-06-20T22:57:18.491Z,2.83
2019-06-20T22:59:47.437Z,1.50
2019-06-20T23:02:16.306Z,2.37
2019-06-20T23:04:45.154Z,2.07
2019-06-20T23:07:13.993Z,2.70
2019-06-20T23:09:42.880Z,3.90
2019-06-20T23:12:11.709Z,1.20
2019-06-20T23:14:40.623Z,12.40
2019-06-20T23:17:09.521Z,1.30
2019-06-20T23:19:38.441Z,1.47
2019-06-20T23:22:07.356Z,1.57
2019-06-20T23:24:36.239Z,2.80
2019-06-20T23:27:05.143Z,1.30
2019-06-20T23:29:33.991Z,2.20
2019-06-20T23:32:02.896Z,1.30
2019-06-20T23:34:31.759Z,3.10
2019-06-20T23:37:12.375Z,1.50
2019-06-20T23:39:31.187Z,2.23
2019-06-20T23:42:00.084Z,2.00
2019-06-20T23:44:28.926Z,1.23
2019-06-20T23:46:57.874Z,1.20
2019-06-20T23:49:26.765Z,1.70
2019-06-20T23:51:57.240Z,1.17
2019-06-20T23:54:26.174Z,2.20
2019-06-20T23:56:55.040Z,2.70
2019-06-20T23:59:23.913Z,1.23
